sensor_id;sensor_type;location;lat;lon;timestamp;pressure;altitude;pressure_sealevel;temperature;humidity
63339;BME280;70568;51.378;-1.342;2023-12-22T00:00:59;99890.90;;;2.97;44.40
63339;BME280;70568;51.378;-1.342;2023-12-22T00:03:25;99900.18;;;2.98;43.96
63339;BME280;70568;51.378;-1.342;2023-12-22T00:05:52;99891.15;;;3.41;43.99
63339;BME280;70568;51.378;-1.342;2023-12-22T00:08:19;99893.26;;;2.62;45.19
63339;BME280;70568;51.378;-1.342;2023-12-22T00:10:45;99889.80;;;2.82;44.45
63339;BME280;70568;51.378;-1.342;2023-12-22T00:13:12;99891.33;;;2.73;45.20
63339;BME280;70568;51.378;-1.342;2023-12-22T00:15:39;99881.51;;;3.08;43.74
63339;BME280;70568;51.378;-1.342;2023-12-22T00:18:06;99876.48;;;3.73;42.99
63339;BME280;70568;51.378;-1.342;2023-12-22T00:20:32;99880.44;;;3.05;44.57
63339;BME280;70568;51.378;-1.342;2023-12-22T00:22:59;99882.89;;;3.29;43.39
63339;BME280;70568;51.378;-1.342;2023-12-22T00:25:25;99880.71;;;4.27;43.10
63339;BME280;70568;51.378;-1.342;2023-12-22T00:27:52;99876.17;;;4.54;42.37
63339;BME280;70568;51.378;-1.342;2023-12-22T00:30:19;99871.85;;;4.72;43.43
63339;BME280;70568;51.378;-1.342;2023-12-22T00:32:45;99872.47;;;4.71;42.40
63339;BME280;70568;51.378;-1.342;2023-12-22T00:35:13;99886.12;;;3.86;41.74
63339;BME280;70568;51.378;-1.342;2023-12-22T00:37:39;99887.61;;;5.70;43.59
63339;BME280;70568;51.378;-1.342;2023-12-22T00:40:07;99886.57;;;4.18;46.18
63339;BME280;70568;51.378;-1.342;2023-12-22T00:42:33;99888.29;;;3.39;47.20
63339;BME280;70568;51.378;-1.342;2023-12-22T00:45:00;99887.58;;;4.08;45.12
63339;BME280;70568;51.378;-1.342;2023-12-22T00:47:26;99883.83;;;4.76;43.74
63339;BME280;70568;51.378;-1.342;2023-12-22T00:49:53;99893.17;;;4.39;44.59
63339;BME280;70568;51.378;-1.342;2023-12-22T00:52:19;99890.55;;;3.42;46.91
63339;BME280;70568;51.378;-1.342;2023-12-22T00:54:46;99890.91;;;4.05;45.70
63339;BME280;70568;51.378;-1.342;2023-12-22T00:57:13;99890.79;;;4.79;44.96
63339;BME280;70568;51.378;-1.342;2023-12-22T00:59:40;99900.39;;;4.82;46.77
63339;BME280;70568;51.378;-1.342;2023-12-22T01:02:06;99912.06;;;4.40;48.35
63339;BME280;70568;51.378;-1.342;2023-12-22T01:04:33;99905.70;;;3.24;50.20
63339;BME280;70568;51.378;-1.342;2023-12-22T01:06:59;99894.23;;;3.46;48.08
63339;BME280;70568;51.378;-1.342;2023-12-22T01:09:26;99894.70;;;3.45;48.90
63339;BME280;70568;51.378;-1.342;2023-12-22T01:11:53;99893.89;;;3.66;49.41
63339;BME280;70568;51.378;-1.342;2023-12-22T01:14:20;99889.18;;;3.35;50.71
63339;BME280;70568;51.378;-1.342;2023-12-22T01:16:46;99885.04;;;2.96;52.32
63339;BME280;70568;51.378;-1.342;2023-12-22T01:19:13;99883.07;;;2.19;54.25
63339;BME280;70568;51.378;-1.342;2023-12-22T01:21:39;99892.25;;;1.59;51.72
63339;BME280;70568;51.378;-1.342;2023-12-22T01:24:06;99888.01;;;2.39;53.59
63339;BME280;70568;51.378;-1.342;2023-12-22T01:26:32;99886.98;;;2.41;51.49
63339;BME280;70568;51.378;-1.342;2023-12-22T01:28:59;99875.45;;;3.42;50.01
63339;BME280;70568;51.378;-1.342;2023-12-22T01:31:25;99867.85;;;3.59;51.27
63339;BME280;70568;51.378;-1.342;2023-12-22T01:33:52;99873.50;;;2.61;52.03
63339;BME280;70568;51.378;-1.342;2023-12-22T01:36:18;99862.61;;;3.55;52.28
63339;BME280;70568;51.378;-1.342;2023-12-22T01:38:45;99858.29;;;1.95;50.41
63339;BME280;70568;51.378;-1.342;2023-12-22T01:41:12;99859.38;;;4.18;50.00
63339;BME280;70568;51.378;-1.342;2023-12-22T01:43:40;99858.87;;;4.02;50.96
63339;BME280;70568;51.378;-1.342;2023-12-22T01:46:06;99860.52;;;3.61;50.83
63339;BME280;70568;51.378;-1.342;2023-12-22T01:48:34;99858.82;;;4.57;50.37
63339;BME280;70568;51.378;-1.342;2023-12-22T01:51:04;99851.84;;;3.63;50.09
63339;BME280;70568;51.378;-1.342;2023-12-22T01:53:33;99864.87;;;3.73;51.47
63339;BME280;70568;51.378;-1.342;2023-12-22T01:56:00;99863.19;;;3.53;51.93
63339;BME280;70568;51.378;-1.342;2023-12-22T01:58:29;99874.07;;;3.34;51.38
63339;BME280;70568;51.378;-1.342;2023-12-22T02:00:57;99861.72;;;3.65;50.40
63339;BME280;70568;51.378;-1.342;2023-12-22T02:03:23;99857.49;;;3.83;50.04
63339;BME280;70568;51.378;-1.342;2023-12-22T02:05:51;99862.76;;;4.60;49.55
63339;BME280;70568;51.378;-1.342;2023-12-22T02:08:18;99855.05;;;1.98;51.35
63339;BME280;70568;51.378;-1.342;2023-12-22T02:10:45;99864.19;;;2.80;51.61
63339;BME280;70568;51.378;-1.342;2023-12-22T02:13:13;99867.18;;;3.95;50.68
63339;BME280;70568;51.378;-1.342;2023-12-22T02:15:40;99868.69;;;5.09;50.67
63339;BME280;70568;51.378;-1.342;2023-12-22T02:18:10;99864.68;;;4.73;50.46
63339;BME280;70568;51.378;-1.342;2023-12-22T02:20:38;99863.49;;;3.88;50.06
63339;BME280;70568;51.378;-1.342;2023-12-22T02:23:04;99859.15;;;3.88;50.16
63339;BME280;70568;51.378;-1.342;2023-12-22T02:25:31;99862.56;;;5.32;48.95
63339;BME280;70568;51.378;-1.342;2023-12-22T02:28:01;99852.92;;;3.10;49.95
63339;BME280;70568;51.378;-1.342;2023-12-22T02:30:33;99865.88;;;2.98;52.26
63339;BME280;70568;51.378;-1.342;2023-12-22T02:33:04;99866.28;;;4.73;49.95
63339;BME280;70568;51.378;-1.342;2023-12-22T02:35:33;99855.67;;;4.35;48.93
63339;BME280;70568;51.378;-1.342;2023-12-22T02:38:03;99860.73;;;4.84;49.57
63339;BME280;70568;51.378;-1.342;2023-12-22T02:40:31;99867.62;;;4.06;50.68
63339;BME280;70568;51.378;-1.342;2023-12-22T02:42:59;99869.75;;;3.73;48.39
63339;BME280;70568;51.378;-1.342;2023-12-22T02:45:27;99873.62;;;3.32;51.03
63339;BME280;70568;51.378;-1.342;2023-12-22T02:47:54;99870.41;;;2.66;50.58
63339;BME280;70568;51.378;-1.342;2023-12-22T02:50:20;99866.75;;;3.28;50.52
63339;BME280;70568;51.378;-1.342;2023-12-22T02:52:47;99869.74;;;3.19;51.57
63339;BME280;70568;51.378;-1.342;2023-12-22T02:55:13;99870.69;;;4.33;49.98
63339;BME280;70568;51.378;-1.342;2023-12-22T02:57:40;99868.26;;;3.63;50.97
63339;BME280;70568;51.378;-1.342;2023-12-22T03:00:08;99860.89;;;2.51;51.11
63339;BME280;70568;51.378;-1.342;2023-12-22T03:02:34;99852.34;;;4.35;49.47
63339;BME280;70568;51.378;-1.342;2023-12-22T03:05:01;99840.35;;;4.41;47.36
63339;BME280;70568;51.378;-1.342;2023-12-22T03:07:28;99842.95;;;4.69;47.51
63339;BME280;70568;51.378;-1.342;2023-12-22T03:09:56;99840.94;;;5.06;46.57
63339;BME280;70568;51.378;-1.342;2023-12-22T03:12:23;99831.58;;;4.21;50.25
63339;BME280;70568;51.378;-1.342;2023-12-22T03:14:50;99834.40;;;4.71;49.16
63339;BME280;70568;51.378;-1.342;2023-12-22T03:17:16;99830.46;;;5.32;49.77
63339;BME280;70568;51.378;-1.342;2023-12-22T03:19:43;99826.20;;;4.72;47.98
63339;BME280;70568;51.378;-1.342;2023-12-22T03:22:09;99827.44;;;2.82;48.97
63339;BME280;70568;51.378;-1.342;2023-12-22T03:24:36;99819.31;;;4.37;49.67
63339;BME280;70568;51.378;-1.342;2023-12-22T03:27:03;99825.60;;;5.20;48.65
63339;BME280;70568;51.378;-1.342;2023-12-22T03:29:29;99828.02;;;3.75;50.52
63339;BME280;70568;51.378;-1.342;2023-12-22T03:31:56;99811.74;;;4.11;50.88
63339;BME280;70568;51.378;-1.342;2023-12-22T03:34:22;99814.86;;;4.62;50.25
63339;BME280;70568;51.378;-1.342;2023-12-22T03:36:49;99815.33;;;3.73;49.35
63339;BME280;70568;51.378;-1.342;2023-12-22T03:39:16;99814.69;;;4.12;50.02
63339;BME280;70568;51.378;-1.342;2023-12-22T03:41:43;99807.08;;;5.39;49.14
63339;BME280;70568;51.378;-1.342;2023-12-22T03:44:10;99809.47;;;4.44;51.08
63339;BME280;70568;51.378;-1.342;2023-12-22T03:46:37;99813.90;;;3.02;51.83
63339;BME280;70568;51.378;-1.342;2023-12-22T03:49:03;99809.86;;;5.04;53.38
63339;BME280;70568;51.378;-1.342;2023-12-22T03:51:30;99808.22;;;2.30;52.10
63339;BME280;70568;51.378;-1.342;2023-12-22T03:53:57;99807.86;;;3.92;52.03
63339;BME280;70568;51.378;-1.342;2023-12-22T03:56:23;99799.00;;;2.76;52.17
63339;BME280;70568;51.378;-1.342;2023-12-22T03:58:50;99798.39;;;4.50;51.74
63339;BME280;70568;51.378;-1.342;2023-12-22T04:01:17;99798.81;;;3.34;52.52
63339;BME280;70568;51.378;-1.342;2023-12-22T04:03:44;99798.20;;;2.72;52.79
63339;BME280;70568;51.378;-1.342;2023-12-22T04:06:12;99799.57;;;4.12;51.35
63339;BME280;70568;51.378;-1.342;2023-12-22T04:08:39;99794.95;;;3.08;52.19
63339;BME280;70568;51.378;-1.342;2023-12-22T04:11:06;99796.14;;;3.76;52.67
63339;BME280;70568;51.378;-1.342;2023-12-22T04:13:32;99795.25;;;4.03;52.34
63339;BME280;70568;51.378;-1.342;2023-12-22T04:15:58;99796.62;;;3.51;52.32
63339;BME280;70568;51.378;-1.342;2023-12-22T04:18:25;99789.86;;;3.01;51.55
63339;BME280;70568;51.378;-1.342;2023-12-22T04:20:51;99795.15;;;3.32;53.46
63339;BME280;70568;51.378;-1.342;2023-12-22T04:23:18;99785.55;;;3.28;53.48
63339;BME280;70568;51.378;-1.342;2023-12-22T04:25:44;99791.63;;;3.54;52.45
63339;BME280;70568;51.378;-1.342;2023-12-22T04:28:12;99791.70;;;2.93;52.57
63339;BME280;70568;51.378;-1.342;2023-12-22T04:30:39;99792.86;;;4.48;51.93
63339;BME280;70568;51.378;-1.342;2023-12-22T04:33:06;99800.02;;;3.47;53.37
63339;BME280;70568;51.378;-1.342;2023-12-22T04:35:32;99800.60;;;3.61;55.62
63339;BME280;70568;51.378;-1.342;2023-12-22T04:37:59;99796.45;;;3.36;53.65
63339;BME280;70568;51.378;-1.342;2023-12-22T04:40:26;99797.84;;;3.61;54.22
63339;BME280;70568;51.378;-1.342;2023-12-22T04:42:52;99796.74;;;3.13;53.57
63339;BME280;70568;51.378;-1.342;2023-12-22T04:45:19;99800.67;;;3.00;53.69
63339;BME280;70568;51.378;-1.342;2023-12-22T04:47:45;99794.39;;;3.37;51.03
63339;BME280;70568;51.378;-1.342;2023-12-22T04:50:13;99799.46;;;4.65;51.37
63339;BME280;70568;51.378;-1.342;2023-12-22T04:52:39;99794.66;;;4.84;52.35
63339;BME280;70568;51.378;-1.342;2023-12-22T04:55:06;99801.47;;;4.24;51.89
63339;BME280;70568;51.378;-1.342;2023-12-22T04:57:36;99795.52;;;3.98;52.00
63339;BME280;70568;51.378;-1.342;2023-12-22T05:00:04;99795.46;;;3.60;52.67
63339;BME280;70568;51.378;-1.342;2023-12-22T05:02:31;99797.93;;;4.03;50.79
63339;BME280;70568;51.378;-1.342;2023-12-22T05:04:59;99795.10;;;5.14;51.23
63339;BME280;70568;51.378;-1.342;2023-12-22T05:07:26;99793.55;;;4.54;51.37
63339;BME280;70568;51.378;-1.342;2023-12-22T05:09:52;99797.06;;;2.88;54.43
63339;BME280;70568;51.378;-1.342;2023-12-22T05:12:19;99803.63;;;3.70;54.86
63339;BME280;70568;51.378;-1.342;2023-12-22T05:14:45;99794.52;;;4.57;52.82
63339;BME280;70568;51.378;-1.342;2023-12-22T05:17:13;99797.11;;;3.69;53.93
63339;BME280;70568;51.378;-1.342;2023-12-22T05:19:39;99797.18;;;3.40;53.50
63339;BME280;70568;51.378;-1.342;2023-12-22T05:22:06;99796.18;;;2.89;56.59
63339;BME280;70568;51.378;-1.342;2023-12-22T05:24:32;99803.76;;;1.31;54.58
63339;BME280;70568;51.378;-1.342;2023-12-22T05:26:59;99804.45;;;4.52;54.07
63339;BME280;70568;51.378;-1.342;2023-12-22T05:29:25;99803.13;;;2.82;53.53
63339;BME280;70568;51.378;-1.342;2023-12-22T05:31:52;99807.46;;;3.54;53.56
63339;BME280;70568;51.378;-1.342;2023-12-22T05:34:18;99804.54;;;5.42;50.60
63339;BME280;70568;51.378;-1.342;2023-12-22T05:36:45;99809.20;;;4.07;52.44
63339;BME280;70568;51.378;-1.342;2023-12-22T05:39:12;99804.66;;;2.91;52.16
63339;BME280;70568;51.378;-1.342;2023-12-22T05:41:39;99805.94;;;3.87;51.16
63339;BME280;70568;51.378;-1.342;2023-12-22T05:44:06;99810.58;;;4.02;52.16
63339;BME280;70568;51.378;-1.342;2023-12-22T05:46:35;99818.64;;;2.41;53.61
63339;BME280;70568;51.378;-1.342;2023-12-22T05:49:02;99810.63;;;3.62;52.70
63339;BME280;70568;51.378;-1.342;2023-12-22T05:51:29;99813.73;;;3.37;52.21
63339;BME280;70568;51.378;-1.342;2023-12-22T05:53:55;99815.61;;;2.53;52.71
63339;BME280;70568;51.378;-1.342;2023-12-22T05:56:22;99820.49;;;3.90;52.13
63339;BME280;70568;51.378;-1.342;2023-12-22T05:58:50;99819.04;;;3.28;51.68
63339;BME280;70568;51.378;-1.342;2023-12-22T06:01:16;99820.33;;;2.46;53.48
63339;BME280;70568;51.378;-1.342;2023-12-22T06:03:44;99821.19;;;3.63;52.03
63339;BME280;70568;51.378;-1.342;2023-12-22T06:06:11;99816.19;;;4.14;52.78
63339;BME280;70568;51.378;-1.342;2023-12-22T06:08:38;99815.21;;;5.51;50.65
63339;BME280;70568;51.378;-1.342;2023-12-22T06:11:04;99807.85;;;4.35;52.24
63339;BME280;70568;51.378;-1.342;2023-12-22T06:13:32;99802.52;;;3.21;51.14
63339;BME280;70568;51.378;-1.342;2023-12-22T06:15:59;99805.27;;;4.09;51.35
63339;BME280;70568;51.378;-1.342;2023-12-22T06:18:25;99803.98;;;2.98;54.35
63339;BME280;70568;51.378;-1.342;2023-12-22T06:20:52;99810.55;;;3.61;52.79
63339;BME280;70568;51.378;-1.342;2023-12-22T06:23:19;99804.40;;;4.08;51.32
63339;BME280;70568;51.378;-1.342;2023-12-22T06:25:45;99814.92;;;4.68;53.17
63339;BME280;70568;51.378;-1.342;2023-12-22T06:28:13;99823.33;;;3.43;54.41
63339;BME280;70568;51.378;-1.342;2023-12-22T06:30:39;99822.05;;;2.73;53.86
63339;BME280;70568;51.378;-1.342;2023-12-22T06:33:06;99829.96;;;3.21;53.18
63339;BME280;70568;51.378;-1.342;2023-12-22T06:35:32;99828.66;;;1.76;52.26
63339;BME280;70568;51.378;-1.342;2023-12-22T06:37:59;99820.88;;;3.98;50.80
63339;BME280;70568;51.378;-1.342;2023-12-22T06:40:25;99826.93;;;2.98;51.29
63339;BME280;70568;51.378;-1.342;2023-12-22T06:42:52;99833.25;;;2.94;51.16
63339;BME280;70568;51.378;-1.342;2023-12-22T06:45:18;99838.98;;;4.20;51.69
63339;BME280;70568;51.378;-1.342;2023-12-22T06:47:45;99841.60;;;4.19;52.22
63339;BME280;70568;51.378;-1.342;2023-12-22T06:50:12;99850.33;;;2.42;52.71
63339;BME280;70568;51.378;-1.342;2023-12-22T06:52:39;99841.63;;;2.10;53.22
63339;BME280;70568;51.378;-1.342;2023-12-22T06:55:07;99839.65;;;3.66;50.96
63339;BME280;70568;51.378;-1.342;2023-12-22T06:57:33;99841.03;;;2.70;50.02
63339;BME280;70568;51.378;-1.342;2023-12-22T07:00:00;99838.75;;;2.95;50.95
63339;BME280;70568;51.378;-1.342;2023-12-22T07:02:28;99857.16;;;2.83;52.49
63339;BME280;70568;51.378;-1.342;2023-12-22T07:05:03;99859.68;;;3.04;53.20
63339;BME280;70568;51.378;-1.342;2023-12-22T07:07:30;99849.86;;;2.57;52.37
63339;BME280;70568;51.378;-1.342;2023-12-22T07:09:57;99851.08;;;3.50;51.20
63339;BME280;70568;51.378;-1.342;2023-12-22T07:12:24;99850.14;;;4.13;49.36
63339;BME280;70568;51.378;-1.342;2023-12-22T07:14:51;99842.47;;;4.28;49.84
63339;BME280;70568;51.378;-1.342;2023-12-22T07:17:17;99853.18;;;3.53;50.97
63339;BME280;70568;51.378;-1.342;2023-12-22T07:19:44;99855.70;;;3.93;51.10
63339;BME280;70568;51.378;-1.342;2023-12-22T07:22:11;99866.06;;;2.55;52.36
63339;BME280;70568;51.378;-1.342;2023-12-22T07:24:37;99864.21;;;3.71;52.43
63339;BME280;70568;51.378;-1.342;2023-12-22T07:27:04;99871.66;;;3.11;52.47
63339;BME280;70568;51.378;-1.342;2023-12-22T07:29:31;99866.08;;;3.11;50.51
63339;BME280;70568;51.378;-1.342;2023-12-22T07:31:58;99868.87;;;4.62;50.87
63339;BME280;70568;51.378;-1.342;2023-12-22T07:34:25;99881.81;;;3.90;51.86
63339;BME280;70568;51.378;-1.342;2023-12-22T07:36:52;99879.19;;;3.32;52.74
63339;BME280;70568;51.378;-1.342;2023-12-22T07:39:18;99875.85;;;3.15;51.67
63339;BME280;70568;51.378;-1.342;2023-12-22T07:41:45;99881.32;;;3.05;52.61
63339;BME280;70568;51.378;-1.342;2023-12-22T07:44:13;99875.66;;;3.46;51.96
63339;BME280;70568;51.378;-1.342;2023-12-22T07:46:39;99877.57;;;3.23;51.59
63339;BME280;70568;51.378;-1.342;2023-12-22T07:49:06;99881.51;;;2.65;51.44
63339;BME280;70568;51.378;-1.342;2023-12-22T07:51:32;99884.96;;;3.79;51.96
63339;BME280;70568;51.378;-1.342;2023-12-22T07:53:59;99886.14;;;2.02;52.18
63339;BME280;70568;51.378;-1.342;2023-12-22T07:56:25;99889.80;;;3.73;52.04
63339;BME280;70568;51.378;-1.342;2023-12-22T07:58:52;99882.66;;;2.89;50.01
63339;BME280;70568;51.378;-1.342;2023-12-22T08:01:18;99890.13;;;4.30;49.50
63339;BME280;70568;51.378;-1.342;2023-12-22T08:03:45;99902.37;;;2.42;52.01
63339;BME280;70568;51.378;-1.342;2023-12-22T08:06:13;99913.18;;;3.98;50.63
63339;BME280;70568;51.378;-1.342;2023-12-22T08:08:39;99917.40;;;3.38;50.94
63339;BME280;70568;51.378;-1.342;2023-12-22T08:11:06;99918.85;;;3.90;49.61
63339;BME280;70568;51.378;-1.342;2023-12-22T08:13:32;99916.76;;;4.00;49.33
63339;BME280;70568;51.378;-1.342;2023-12-22T08:15:59;99919.02;;;4.65;48.78
63339;BME280;70568;51.378;-1.342;2023-12-22T08:18:25;99920.43;;;4.88;47.71
63339;BME280;70568;51.378;-1.342;2023-12-22T08:20:52;99925.81;;;3.97;48.89
63339;BME280;70568;51.378;-1.342;2023-12-22T08:23:18;99929.36;;;3.49;50.47
63339;BME280;70568;51.378;-1.342;2023-12-22T08:25:45;99930.34;;;3.18;51.15
63339;BME280;70568;51.378;-1.342;2023-12-22T08:28:12;99932.70;;;3.44;50.88
63339;BME280;70568;51.378;-1.342;2023-12-22T08:30:39;99935.22;;;4.23;51.21
63339;BME280;70568;51.378;-1.342;2023-12-22T08:33:06;99928.81;;;2.26;51.84
63339;BME280;70568;51.378;-1.342;2023-12-22T08:35:33;99942.49;;;3.35;50.59
63339;BME280;70568;51.378;-1.342;2023-12-22T08:37:59;99935.58;;;4.62;50.17
63339;BME280;70568;51.378;-1.342;2023-12-22T08:40:26;99938.68;;;4.28;51.83
63339;BME280;70568;51.378;-1.342;2023-12-22T08:42:52;99941.69;;;3.57;52.35
63339;BME280;70568;51.378;-1.342;2023-12-22T08:45:20;99944.96;;;3.57;52.46
63339;BME280;70568;51.378;-1.342;2023-12-22T08:47:47;99946.51;;;3.01;54.25
63339;BME280;70568;51.378;-1.342;2023-12-22T08:50:14;99954.30;;;3.08;53.96
63339;BME280;70568;51.378;-1.342;2023-12-22T08:52:41;99949.83;;;2.45;54.24
63339;BME280;70568;51.378;-1.342;2023-12-22T08:55:08;99956.52;;;3.10;52.65
63339;BME280;70568;51.378;-1.342;2023-12-22T08:57:35;99956.60;;;4.25;50.89
63339;BME280;70568;51.378;-1.342;2023-12-22T09:00:02;99959.92;;;3.49;53.70
63339;BME280;70568;51.378;-1.342;2023-12-22T09:02:29;99957.53;;;3.21;54.57
63339;BME280;70568;51.378;-1.342;2023-12-22T09:04:57;99963.81;;;3.81;52.42
63339;BME280;70568;51.378;-1.342;2023-12-22T09:07:23;99957.00;;;2.66;52.27
63339;BME280;70568;51.378;-1.342;2023-12-22T09:09:50;99960.24;;;3.85;51.78
63339;BME280;70568;51.378;-1.342;2023-12-22T09:12:17;99951.40;;;4.28;50.83
63339;BME280;70568;51.378;-1.342;2023-12-22T09:14:44;99957.66;;;4.28;50.90
63339;BME280;70568;51.378;-1.342;2023-12-22T09:17:12;99962.71;;;3.79;52.11
63339;BME280;70568;51.378;-1.342;2023-12-22T09:19:39;99961.92;;;2.97;52.41
63339;BME280;70568;51.378;-1.342;2023-12-22T09:22:06;99960.17;;;3.32;50.59
63339;BME280;70568;51.378;-1.342;2023-12-22T09:24:32;99961.76;;;4.14;49.72
63339;BME280;70568;51.378;-1.342;2023-12-22T09:26:59;99959.77;;;3.47;48.54
63339;BME280;70568;51.378;-1.342;2023-12-22T09:29:25;99968.37;;;4.17;50.62
63339;BME280;70568;51.378;-1.342;2023-12-22T09:31:52;99976.06;;;4.77;50.08
63339;BME280;70568;51.378;-1.342;2023-12-22T09:34:19;99982.55;;;3.55;48.80
63339;BME280;70568;51.378;-1.342;2023-12-22T09:36:46;99982.35;;;3.91;49.41
63339;BME280;70568;51.378;-1.342;2023-12-22T09:39:13;99980.77;;;3.70;48.89
63339;BME280;70568;51.378;-1.342;2023-12-22T09:41:40;99991.52;;;3.19;49.75
63339;BME280;70568;51.378;-1.342;2023-12-22T09:44:06;99993.94;;;4.13;48.13
63339;BME280;70568;51.378;-1.342;2023-12-22T09:46:34;99991.29;;;3.75;49.85
63339;BME280;70568;51.378;-1.342;2023-12-22T09:49:02;99993.44;;;4.50;49.10
63339;BME280;70568;51.378;-1.342;2023-12-22T09:51:29;99998.72;;;3.65;47.41
63339;BME280;70568;51.378;-1.342;2023-12-22T09:53:58;99991.17;;;4.98;46.93
63339;BME280;70568;51.378;-1.342;2023-12-22T09:56:26;99987.83;;;4.00;46.54
63339;BME280;70568;51.378;-1.342;2023-12-22T09:58:54;99999.27;;;4.07;47.92
63339;BME280;70568;51.378;-1.342;2023-12-22T10:01:23;99997.13;;;3.59;48.52
63339;BME280;70568;51.378;-1.342;2023-12-22T10:03:50;100001.89;;;3.19;48.27
63339;BME280;70568;51.378;-1.342;2023-12-22T10:06:17;100004.63;;;2.82;50.63
63339;BME280;70568;51.378;-1.342;2023-12-22T10:08:46;100004.48;;;2.60;50.08
63339;BME280;70568;51.378;-1.342;2023-12-22T10:11:16;100006.22;;;4.37;47.91
63339;BME280;70568;51.378;-1.342;2023-12-22T10:13:45;100011.44;;;3.91;48.97
63339;BME280;70568;51.378;-1.342;2023-12-22T10:16:13;100026.50;;;3.01;49.82
63339;BME280;70568;51.378;-1.342;2023-12-22T10:18:40;100025.69;;;3.85;47.84
63339;BME280;70568;51.378;-1.342;2023-12-22T10:21:07;100022.11;;;4.41;48.19
63339;BME280;70568;51.378;-1.342;2023-12-22T10:23:34;100035.79;;;2.95;48.90
63339;BME280;70568;51.378;-1.342;2023-12-22T10:26:02;100027.84;;;3.29;49.07
63339;BME280;70568;51.378;-1.342;2023-12-22T10:28:28;100024.83;;;2.99;50.54
63339;BME280;70568;51.378;-1.342;2023-12-22T10:30:56;100026.51;;;2.85;51.09
63339;BME280;70568;51.378;-1.342;2023-12-22T10:33:23;100017.49;;;3.03;50.78
63339;BME280;70568;51.378;-1.342;2023-12-22T10:35:50;100025.49;;;4.12;49.89
63339;BME280;70568;51.378;-1.342;2023-12-22T10:38:18;100038.32;;;3.37;50.66
63339;BME280;70568;51.378;-1.342;2023-12-22T10:40:45;100040.30;;;2.75;51.78
63339;BME280;70568;51.378;-1.342;2023-12-22T10:43:13;100037.32;;;2.66;50.91
63339;BME280;70568;51.378;-1.342;2023-12-22T10:45:41;100046.13;;;2.42;50.82
63339;BME280;70568;51.378;-1.342;2023-12-22T10:48:08;100047.66;;;3.02;49.80
63339;BME280;70568;51.378;-1.342;2023-12-22T10:50:35;100054.38;;;3.88;48.46
63339;BME280;70568;51.378;-1.342;2023-12-22T10:53:05;100049.47;;;4.22;47.93
63339;BME280;70568;51.378;-1.342;2023-12-22T10:55:34;100047.93;;;4.59;48.49
63339;BME280;70568;51.378;-1.342;2023-12-22T10:58:02;100043.72;;;4.05;47.11
63339;BME280;70568;51.378;-1.342;2023-12-22T11:00:28;100048.78;;;4.50;47.85
63339;BME280;70568;51.378;-1.342;2023-12-22T11:03:00;100052.23;;;4.80;48.18
63339;BME280;70568;51.378;-1.342;2023-12-22T11:05:28;100051.71;;;3.69;49.52
63339;BME280;70568;51.378;-1.342;2023-12-22T11:07:58;100046.34;;;3.85;49.34
63339;BME280;70568;51.378;-1.342;2023-12-22T11:10:27;100040.70;;;3.77;49.17
63339;BME280;70568;51.378;-1.342;2023-12-22T11:12:55;100055.01;;;2.90;51.70
63339;BME280;70568;51.378;-1.342;2023-12-22T11:15:24;100048.99;;;4.30;49.71
63339;BME280;70568;51.378;-1.342;2023-12-22T11:17:51;100054.97;;;3.44;48.45
63339;BME280;70568;51.378;-1.342;2023-12-22T11:20:19;100054.46;;;4.09;47.59
63339;BME280;70568;51.378;-1.342;2023-12-22T11:22:47;100059.45;;;4.20;47.04
63339;BME280;70568;51.378;-1.342;2023-12-22T11:25:15;100047.71;;;3.74;48.18
63339;BME280;70568;51.378;-1.342;2023-12-22T11:27:43;100057.30;;;3.66;50.33
63339;BME280;70568;51.378;-1.342;2023-12-22T11:30:12;100044.94;;;2.66;51.14
63339;BME280;70568;51.378;-1.342;2023-12-22T11:32:41;100048.92;;;3.49;48.21
63339;BME280;70568;51.378;-1.342;2023-12-22T11:35:08;100050.74;;;3.78;48.94
63339;BME280;70568;51.378;-1.342;2023-12-22T11:37:36;100056.78;;;3.99;49.19
63339;BME280;70568;51.378;-1.342;2023-12-22T11:40:05;100055.53;;;3.51;48.94
63339;BME280;70568;51.378;-1.342;2023-12-22T11:42:35;100050.36;;;3.12;50.02
63339;BME280;70568;51.378;-1.342;2023-12-22T11:45:04;100047.78;;;4.33;48.62
63339;BME280;70568;51.378;-1.342;2023-12-22T11:47:32;100045.57;;;4.42;48.89
63339;BME280;70568;51.378;-1.342;2023-12-22T11:50:00;100052.51;;;3.50;48.29
63339;BME280;70568;51.378;-1.342;2023-12-22T11:52:28;100043.33;;;3.82;47.46
63339;BME280;70568;51.378;-1.342;2023-12-22T11:54:56;100038.24;;;4.88;45.95
63339;BME280;70568;51.378;-1.342;2023-12-22T11:57:32;100043.34;;;5.97;45.09
63339;BME280;70568;51.378;-1.342;2023-12-22T12:00:03;100048.01;;;4.56;45.94
63339;BME280;70568;51.378;-1.342;2023-12-22T12:02:30;100045.34;;;4.10;46.91
63339;BME280;70568;51.378;-1.342;2023-12-22T12:04:59;100046.91;;;4.25;46.14
63339;BME280;70568;51.378;-1.342;2023-12-22T12:07:37;100043.11;;;4.84;47.34
63339;BME280;70568;51.378;-1.342;2023-12-22T12:10:05;100043.58;;;3.91;47.92
63339;BME280;70568;51.378;-1.342;2023-12-22T12:12:31;100031.08;;;3.28;48.35
63339;BME280;70568;51.378;-1.342;2023-12-22T12:15:06;100028.37;;;4.20;46.87
63339;BME280;70568;51.378;-1.342;2023-12-22T12:17:37;100019.64;;;5.08;46.80
63339;BME280;70568;51.378;-1.342;2023-12-22T12:20:06;100001.09;;;4.76;46.42
63339;BME280;70568;51.378;-1.342;2023-12-22T12:22:33;100007.57;;;3.39;46.81
63339;BME280;70568;51.378;-1.342;2023-12-22T12:24:59;99998.58;;;4.08;47.29
63339;BME280;70568;51.378;-1.342;2023-12-22T12:27:27;100009.14;;;3.86;47.41
63339;BME280;70568;51.378;-1.342;2023-12-22T12:29:54;100023.61;;;3.79;46.38
63339;BME280;70568;51.378;-1.342;2023-12-22T12:32:23;100016.71;;;2.97;47.36
63339;BME280;70568;51.378;-1.342;2023-12-22T12:34:50;100012.11;;;3.91;46.32
63339;BME280;70568;51.378;-1.342;2023-12-22T12:37:17;100020.94;;;4.68;47.54
63339;BME280;70568;51.378;-1.342;2023-12-22T12:39:43;100028.09;;;3.05;48.37
63339;BME280;70568;51.378;-1.342;2023-12-22T12:42:15;100038.81;;;3.66;48.35
63339;BME280;70568;51.378;-1.342;2023-12-22T12:44:42;100030.36;;;3.00;47.67
63339;BME280;70568;51.378;-1.342;2023-12-22T12:47:12;100029.45;;;4.87;47.79
63339;BME280;70568;51.378;-1.342;2023-12-22T12:49:39;100032.89;;;3.18;47.18
63339;BME280;70568;51.378;-1.342;2023-12-22T12:52:12;100019.41;;;3.76;46.63
63339;BME280;70568;51.378;-1.342;2023-12-22T12:54:40;100015.89;;;3.20;46.94
63339;BME280;70568;51.378;-1.342;2023-12-22T12:57:07;100021.37;;;3.43;47.37